createdAt,value
2023-02-17T00:00:45.722Z,971.37
2023-02-17T00:01:45.671Z,971.42
2023-02-17T00:02:45.873Z,971.4
2023-02-17T00:03:45.757Z,971.41
2023-02-17T00:04:45.713Z,971.39
2023-02-17T00:08:45.706Z,971.41
2023-02-17T00:09:45.722Z,971.36
2023-02-17T00:11:45.722Z,971.37
2023-02-17T00:12:45.726Z,971.32
2023-02-17T00:13:45.721Z,971.3
2023-02-17T00:14:45.703Z,971.31
2023-02-17T00:17:45.759Z,971.3
2023-02-17T00:18:45.804Z,971.32
2023-02-17T00:19:45.860Z,971.3
2023-02-17T00:20:45.771Z,971.29
2023-02-17T00:21:45.738Z,971.3
2023-02-17T00:22:45.969Z,971.32
2023-02-17T00:23:45.906Z,971.35
2023-02-17T00:25:45.746Z,971.34
2023-02-17T00:26:45.781Z,971.37
2023-02-17T00:27:45.744Z,971.4
2023-02-17T00:28:45.775Z,971.37
2023-02-17T00:30:45.736Z,971.36
2023-02-17T00:31:45.893Z,971.35
2023-02-17T00:33:45.829Z,971.38
2023-02-17T00:34:45.789Z,971.39
2023-02-17T00:35:45.751Z,971.38
2023-02-17T00:36:45.860Z,971.36
2023-02-17T00:38:45.980Z,971.41
2023-02-17T00:39:46.904Z,971.44
2023-02-17T00:40:45.936Z,971.43
2023-02-17T00:41:45.710Z,971.42
2023-02-17T00:42:47.398Z,971.45
2023-02-17T00:43:45.804Z,971.42
2023-02-17T00:44:45.831Z,971.41
2023-02-17T00:46:45.830Z,971.47
2023-02-17T00:49:45.819Z,971.49
2023-02-17T00:50:45.860Z,971.47
2023-02-17T00:51:45.812Z,971.49
2023-02-17T00:52:45.806Z,971.5
2023-02-17T00:55:45.776Z,971.48
2023-02-17T00:58:45.810Z,971.5
2023-02-17T00:59:45.845Z,971.51
2023-02-17T01:00:45.822Z,971.49
2023-02-17T01:01:45.912Z,971.5
2023-02-17T01:02:45.922Z,971.52
2023-02-17T01:03:45.836Z,971.51
2023-02-17T01:04:45.855Z,971.52
2023-02-17T01:05:46.962Z,971.54
2023-02-17T01:06:45.882Z,971.51
2023-02-17T01:07:45.842Z,971.55
2023-02-17T01:08:45.851Z,971.56
2023-02-17T01:10:45.912Z,971.58
2023-02-17T01:11:46.070Z,971.57
2023-02-17T01:12:45.905Z,971.62
2023-02-17T01:13:45.921Z,971.63
2023-02-17T01:15:46.065Z,971.62
2023-02-17T01:17:45.842Z,971.65
2023-02-17T01:18:46.037Z,971.64
2023-02-17T01:19:45.813Z,971.63
2023-02-17T01:20:45.835Z,971.62
2023-02-17T01:21:46.012Z,971.63
2023-02-17T01:22:45.994Z,971.64
2023-02-17T01:23:45.875Z,971.63
2023-02-17T01:24:46.038Z,971.6
2023-02-17T01:26:46.028Z,971.62
2023-02-17T01:27:46.020Z,971.63
2023-02-17T01:28:45.975Z,971.6
2023-02-17T01:29:45.978Z,971.62
2023-02-17T01:31:46.083Z,971.6
2023-02-17T01:32:45.962Z,971.62
2023-02-17T01:34:45.925Z,971.6
2023-02-17T01:36:45.954Z,971.5
2023-02-17T01:37:45.943Z,971.56
2023-02-17T01:38:45.933Z,971.58
2023-02-17T01:39:46.064Z,971.57
2023-02-17T01:40:46.015Z,971.54
2023-02-17T01:42:46.000Z,971.51
2023-02-17T01:43:45.858Z,971.49
2023-02-17T01:44:46.088Z,971.5
2023-02-17T01:45:45.955Z,971.49
2023-02-17T01:46:46.150Z,971.47
2023-02-17T01:48:45.954Z,971.46
2023-02-17T01:49:45.936Z,971.5
2023-02-17T01:50:46.050Z,971.47
2023-02-17T01:51:46.067Z,971.45
2023-02-17T01:53:46.108Z,971.44
2023-02-17T01:55:45.963Z,971.45
2023-02-17T01:56:46.070Z,971.42
2023-02-17T01:57:46.022Z,971.45
2023-02-17T01:58:45.919Z,971.37
2023-02-17T01:59:46.090Z,971.42
2023-02-17T02:00:46.062Z,971.43
2023-02-17T02:01:46.116Z,971.4
2023-02-17T02:02:46.191Z,971.41
2023-02-17T02:03:46.182Z,971.42
2023-02-17T02:05:45.979Z,971.41
2023-02-17T02:06:45.926Z,971.38
2023-02-17T02:07:46.028Z,971.41
2023-02-17T02:08:46.004Z,971.44
2023-02-17T02:09:46.199Z,971.35
2023-02-17T02:10:46.034Z,971.38
2023-02-17T02:11:46.045Z,971.37
2023-02-17T02:12:46.017Z,971.33
2023-02-17T02:13:46.051Z,971.32
2023-02-17T02:15:46.094Z,971.28
2023-02-17T02:16:46.083Z,971.26
2023-02-17T02:17:45.981Z,971.28
2023-02-17T02:18:46.062Z,971.27
2023-02-17T02:19:46.069Z,971.23
2023-02-17T02:20:46.024Z,971.26
2023-02-17T02:21:45.974Z,971.19
2023-02-17T02:22:46.045Z,971.22
2023-02-17T02:23:46.163Z,971.26
2023-02-17T02:24:46.077Z,971.24
2023-02-17T02:25:46.136Z,971.27
2023-02-17T02:26:46.193Z,971.23
2023-02-17T02:27:46.114Z,971.24
2023-02-17T02:28:46.186Z,971.28
2023-02-17T02:29:46.064Z,971.3
2023-02-17T02:30:46.155Z,971.29
2023-02-17T02:32:46.099Z,971.31
2023-02-17T02:33:46.077Z,971.32
2023-02-17T02:34:46.187Z,971.3
2023-02-17T02:35:46.190Z,971.31
2023-02-17T02:39:46.108Z,971.3
2023-02-17T02:40:46.237Z,971.28
2023-02-17T02:41:45.994Z,971.3
2023-02-17T02:42:46.065Z,971.26
2023-02-17T02:46:46.058Z,971.24
2023-02-17T02:47:46.092Z,971.26
2023-02-17T02:48:46.038Z,971.27
2023-02-17T02:49:46.134Z,971.26
2023-02-17T02:50:46.148Z,971.27
2023-02-17T02:51:46.228Z,971.28
2023-02-17T02:52:46.090Z,971.25
2023-02-17T02:53:47.696Z,971.22
2023-02-17T02:54:46.210Z,971.21
2023-02-17T02:55:46.225Z,971.22
2023-02-17T02:56:46.067Z,971.2
2023-02-17T02:57:46.165Z,971.21
2023-02-17T02:58:46.240Z,971.18
2023-02-17T02:59:46.195Z,971.16
2023-02-17T03:00:46.284Z,971.14
2023-02-17T03:01:46.130Z,971.13
2023-02-17T03:03:46.351Z,971.18
2023-02-17T03:04:46.108Z,971.14
2023-02-17T03:06:46.261Z,971.16
2023-02-17T03:07:46.121Z,971.11
2023-02-17T03:08:46.215Z,971.1
2023-02-17T03:09:46.128Z,971.14
2023-02-17T03:11:46.196Z,971.09
2023-02-17T03:13:46.088Z,971.09
2023-02-17T03:14:46.142Z,971.07
2023-02-17T03:15:46.243Z,971.09
2023-02-17T03:16:46.204Z,971.06
2023-02-17T03:17:46.128Z,971.08
2023-02-17T03:18:46.204Z,971.09
2023-02-17T03:19:46.328Z,971.05
2023-02-17T03:20:46.156Z,971.09
2023-02-17T03:21:46.313Z,971.13
2023-02-17T03:23:46.288Z,971.03
2023-02-17T03:24:46.262Z,971.13
2023-02-17T03:25:46.207Z,971.12
2023-02-17T03:26:46.206Z,971.15
2023-02-17T03:27:46.177Z,971.18
2023-02-17T03:30:46.230Z,971.15
2023-02-17T03:31:46.275Z,971.14
2023-02-17T03:32:46.352Z,971.18
2023-02-17T03:33:46.105Z,971.12
2023-02-17T03:34:46.238Z,971.1
2023-02-17T03:35:46.262Z,971.11
2023-02-17T03:36:46.209Z,971.09
2023-02-17T03:37:47.620Z,971.08
2023-02-17T03:38:46.241Z,971.06
2023-02-17T03:39:46.121Z,971.09
2023-02-17T03:41:46.232Z,971.1
2023-02-17T03:42:46.214Z,971.11
2023-02-17T03:43:46.261Z,971.09
2023-02-17T03:46:46.186Z,971.11
2023-02-17T03:48:46.406Z,971.12
2023-02-17T03:49:46.184Z,971.13
2023-02-17T03:50:46.241Z,971.1
2023-02-17T03:52:46.180Z,971.15
2023-02-17T03:53:46.227Z,971.12
2023-02-17T03:54:46.405Z,971.1
2023-02-17T03:55:46.319Z,971.13
2023-02-17T03:56:46.279Z,971.11
2023-02-17T03:57:46.226Z,971.12
2023-02-17T03:59:46.326Z,971.13
2023-02-17T04:00:46.318Z,971.09
2023-02-17T04:01:46.319Z,971.13
2023-02-17T04:02:46.168Z,971.14
2023-02-17T04:03:46.235Z,971.11
2023-02-17T04:04:46.320Z,971.14
2023-02-17T04:07:46.387Z,971.18
2023-02-17T04:08:46.255Z,971.16
2023-02-17T04:09:46.338Z,971.19
2023-02-17T04:10:46.344Z,971.17
2023-02-17T04:11:46.331Z,971.19
2023-02-17T04:12:46.233Z,971.22
2023-02-17T04:13:46.203Z,971.26
2023-02-17T04:14:46.305Z,971.3
2023-02-17T04:15:46.320Z,971.31
2023-02-17T04:16:46.350Z,971.27
2023-02-17T04:17:46.226Z,971.26
2023-02-17T04:18:46.299Z,971.27
2023-02-17T04:20:46.260Z,971.25
2023-02-17T04:21:46.411Z,971.26
2023-02-17T04:22:46.311Z,971.23
2023-02-17T04:23:46.322Z,971.26
2023-02-17T04:24:46.395Z,971.32
2023-02-17T04:25:46.372Z,971.3
2023-02-17T04:26:46.238Z,971.32
2023-02-17T04:27:46.234Z,971.33
2023-02-17T04:28:46.217Z,971.31
2023-02-17T04:29:46.255Z,971.32
2023-02-17T04:30:46.335Z,971.31
2023-02-17T04:31:46.459Z,971.33
2023-02-17T04:33:46.420Z,971.34
2023-02-17T04:34:46.373Z,971.33
2023-02-17T04:35:46.446Z,971.3
2023-02-17T04:36:46.507Z,971.38
2023-02-17T04:37:46.326Z,971.37
2023-02-17T04:38:46.307Z,971.39
2023-02-17T04:41:46.312Z,971.38
2023-02-17T04:42:46.475Z,971.37
2023-02-17T04:43:46.370Z,971.35
2023-02-17T04:44:46.365Z,971.37
2023-02-17T04:45:46.401Z,971.34
2023-02-17T04:46:46.492Z,971.35
2023-02-17T04:47:46.423Z,971.39
2023-02-17T04:48:46.317Z,971.41
2023-02-17T04:49:46.409Z,971.38
2023-02-17T04:51:46.332Z,971.34
2023-02-17T04:52:46.449Z,971.32
2023-02-17T04:53:46.457Z,971.31
2023-02-17T04:54:46.396Z,971.33
2023-02-17T04:55:46.371Z,971.32
2023-02-17T04:56:46.494Z,971.31
2023-02-17T04:57:46.480Z,971.32
2023-02-17T04:58:46.464Z,971.34
2023-02-17T05:00:46.449Z,971.3
2023-02-17T05:01:46.555Z,971.32
2023-02-17T05:02:46.556Z,971.29
2023-02-17T05:03:46.419Z,971.27
2023-02-17T05:05:46.615Z,971.22
2023-02-17T05:06:46.373Z,971.26
2023-02-17T05:07:47.570Z,971.2
2023-02-17T05:11:46.571Z,971.22
2023-02-17T05:12:46.530Z,971.24
2023-02-17T05:13:46.572Z,971.2
2023-02-17T05:14:46.512Z,971.22
2023-02-17T05:15:46.494Z,971.21
2023-02-17T05:18:46.586Z,971.18
2023-02-17T05:19:46.492Z,971.19
2023-02-17T05:20:46.417Z,971.21
2023-02-17T05:21:46.370Z,971.18
2023-02-17T05:22:46.451Z,971.19
2023-02-17T05:23:46.528Z,971.17
2023-02-17T05:25:46.421Z,971.16
2023-02-17T05:27:46.593Z,971.14
2023-02-17T05:28:46.495Z,971.09
2023-02-17T05:31:46.599Z,971.1
2023-02-17T05:32:46.421Z,971.12
2023-02-17T05:33:46.589Z,971.08
2023-02-17T05:34:46.502Z,971.09
2023-02-17T05:35:46.465Z,971.07
2023-02-17T05:36:46.610Z,971.05
2023-02-17T05:37:46.565Z,971.04
2023-02-17T05:38:46.490Z,971.02
2023-02-17T05:42:46.613Z,970.99
2023-02-17T05:43:46.510Z,971.01
2023-02-17T05:44:46.523Z,971.02
2023-02-17T05:46:46.574Z,971
2023-02-17T05:47:46.522Z,970.95
2023-02-17T05:48:47.664Z,970.97
2023-02-17T05:49:46.465Z,970.98
2023-02-17T05:50:46.563Z,970.99
2023-02-17T05:51:46.558Z,970.97
2023-02-17T05:52:46.459Z,970.99
2023-02-17T05:53:47.669Z,971.02
2023-02-17T05:54:46.442Z,971.08
2023-02-17T05:55:48.555Z,971.05
2023-02-17T05:56:46.747Z,971.07
2023-02-17T05:57:46.494Z,971.12
2023-02-17T05:59:47.810Z,971.17
2023-02-17T06:00:46.682Z,971.2
2023-02-17T06:01:46.626Z,971.18
2023-02-17T06:02:46.495Z,971.2
2023-02-17T06:03:46.617Z,971.22
2023-02-17T06:05:46.520Z,971.2
2023-02-17T06:06:46.612Z,971.16
2023-02-17T06:07:46.581Z,971.2
2023-02-17T06:08:46.570Z,971.14
2023-02-17T06:09:47.334Z,971.1
2023-02-17T06:10:46.603Z,971.11
2023-02-17T06:11:46.501Z,971.1
2023-02-17T06:12:46.730Z,971.11
2023-02-17T06:14:46.670Z,971.07
2023-02-17T06:15:46.654Z,971.09
2023-02-17T06:16:46.617Z,971.12
2023-02-17T06:17:47.859Z,971.08
2023-02-17T06:18:46.688Z,971.12
2023-02-17T06:19:46.659Z,971.11
2023-02-17T06:20:46.749Z,971.16
2023-02-17T06:21:46.523Z,971.18
2023-02-17T06:23:46.714Z,971.2
2023-02-17T06:24:46.759Z,971.21
2023-02-17T06:25:46.745Z,971.15
2023-02-17T06:26:46.654Z,971.17
2023-02-17T06:27:46.760Z,971.15
2023-02-17T06:28:46.566Z,971.14
2023-02-17T06:29:46.608Z,971.16
2023-02-17T06:30:46.729Z,971.14
2023-02-17T06:31:46.714Z,971.13
2023-02-17T06:32:46.647Z,971.17
2023-02-17T06:33:46.677Z,971.21
2023-02-17T06:34:46.835Z,971.23
2023-02-17T06:35:46.729Z,971.29
2023-02-17T06:36:46.709Z,971.28
2023-02-17T06:37:46.680Z,971.3
2023-02-17T06:38:46.582Z,971.29
2023-02-17T06:39:46.673Z,971.32
2023-02-17T06:40:46.627Z,971.31
2023-02-17T06:42:46.714Z,971.33
2023-02-17T06:43:46.767Z,971.34
2023-02-17T06:44:46.694Z,971.36
2023-02-17T06:45:46.716Z,971.4
2023-02-17T06:47:46.799Z,971.45
2023-02-17T06:49:46.744Z,971.47
2023-02-17T06:50:46.638Z,971.48
2023-02-17T06:52:46.777Z,971.52
2023-02-17T06:54:46.711Z,971.5
2023-02-17T06:55:46.704Z,971.51
2023-02-17T06:56:46.798Z,971.53
2023-02-17T06:57:46.755Z,971.56
2023-02-17T06:59:46.719Z,971.58
2023-02-17T07:00:46.748Z,971.59
2023-02-17T07:02:46.757Z,971.61
2023-02-17T07:03:46.660Z,971.63
2023-02-17T07:04:46.747Z,971.65
2023-02-17T07:05:46.700Z,971.64
2023-02-17T07:06:46.673Z,971.66
2023-02-17T07:07:46.697Z,971.67
2023-02-17T07:08:46.712Z,971.66
2023-02-17T07:09:46.935Z,971.68
2023-02-17T07:11:46.727Z,971.7
2023-02-17T07:12:46.746Z,971.71
2023-02-17T07:13:46.820Z,971.68
2023-02-17T07:14:46.682Z,971.69
2023-02-17T07:15:46.887Z,971.73
2023-02-17T07:17:46.701Z,971.74
2023-02-17T07:20:46.827Z,971.73
2023-02-17T07:21:46.746Z,971.76
2023-02-17T07:22:46.689Z,971.75
2023-02-17T07:23:46.710Z,971.76
2023-02-17T07:25:46.718Z,971.74
2023-02-17T07:26:46.832Z,971.71
2023-02-17T07:27:46.755Z,971.72
2023-02-17T07:28:46.793Z,971.74
2023-02-17T07:29:46.759Z,971.72
2023-02-17T07:31:46.791Z,971.75
2023-02-17T07:33:46.730Z,971.76
2023-02-17T07:34:46.789Z,971.78
2023-02-17T07:35:46.896Z,971.72
2023-02-17T07:36:46.788Z,971.76
2023-02-17T07:37:46.719Z,971.81
2023-02-17T07:38:47.035Z,971.78
2023-02-17T07:39:46.927Z,971.77
2023-02-17T07:40:46.859Z,971.79
2023-02-17T07:41:46.776Z,971.78
2023-02-17T07:42:46.899Z,971.79
2023-02-17T07:43:46.901Z,971.8
2023-02-17T07:45:47.011Z,971.82
2023-02-17T07:46:46.785Z,971.8
2023-02-17T07:47:46.888Z,971.84
2023-02-17T07:48:46.887Z,971.82
2023-02-17T07:49:46.862Z,971.83
2023-02-17T07:50:46.908Z,971.8
2023-02-17T07:51:46.808Z,971.85
2023-02-17T07:52:46.869Z,971.82
2023-02-17T07:53:46.873Z,971.85
2023-02-17T07:54:46.909Z,971.84
2023-02-17T07:55:46.900Z,971.86
2023-02-17T07:56:46.756Z,971.85
2023-02-17T07:57:46.834Z,971.89
2023-02-17T07:58:46.859Z,971.93
2023-02-17T07:59:46.828Z,971.92
2023-02-17T08:00:46.956Z,971.87
2023-02-17T08:01:46.876Z,971.91
2023-02-17T08:02:46.851Z,971.93
2023-02-17T08:03:46.937Z,971.9
2023-02-17T08:04:46.837Z,971.92
2023-02-17T08:05:48.227Z,971.93
2023-02-17T08:06:46.930Z,971.94
2023-02-17T08:07:46.886Z,971.9
2023-02-17T08:08:46.864Z,971.97
2023-02-17T08:10:46.816Z,971.99
2023-02-17T08:11:48.817Z,971.95
2023-02-17T08:12:46.946Z,971.99
2023-02-17T08:14:46.877Z,972.05
2023-02-17T08:15:46.848Z,972.03
2023-02-17T08:16:46.985Z,972.02
2023-02-17T08:17:48.833Z,972.04
2023-02-17T08:19:48.997Z,972.07
2023-02-17T08:20:47.098Z,972.04
2023-02-17T08:21:46.841Z,972.09
2023-02-17T08:22:47.036Z,972.07
2023-02-17T08:23:46.962Z,972.06
2023-02-17T08:24:46.958Z,972.1
2023-02-17T08:25:46.925Z,972.07
2023-02-17T08:26:46.936Z,972.11
2023-02-17T08:27:46.836Z,972.08
2023-02-17T08:28:46.862Z,972.1
2023-02-17T08:29:47.036Z,972.12
2023-02-17T08:31:46.997Z,972.15
2023-02-17T08:33:46.890Z,972.16
2023-02-17T08:34:46.910Z,972.19
2023-02-17T08:35:47.000Z,972.17
2023-02-17T08:36:46.977Z,972.22
2023-02-17T08:37:46.924Z,972.23
2023-02-17T08:38:46.925Z,972.26
2023-02-17T08:39:46.892Z,972.24
2023-02-17T08:40:46.953Z,972.23
2023-02-17T08:41:46.893Z,972.26
2023-02-17T08:42:46.919Z,972.25
2023-02-17T08:43:46.981Z,972.28
2023-02-17T08:44:46.879Z,972.29
2023-02-17T08:45:47.051Z,972.27
2023-02-17T08:46:46.943Z,972.3
2023-02-17T08:47:47.031Z,972.29
2023-02-17T08:48:47.139Z,972.36
2023-02-17T08:49:47.019Z,972.32
2023-02-17T08:51:47.007Z,972.31
2023-02-17T08:53:47.019Z,972.37
2023-02-17T08:54:47.004Z,972.4
2023-02-17T08:55:49.382Z,972.36
2023-02-17T08:56:47.009Z,972.39
2023-02-17T08:57:47.038Z,972.41
2023-02-17T08:58:46.953Z,972.47
2023-02-17T08:59:46.944Z,972.45
2023-02-17T09:00:47.023Z,972.46
2023-02-17T09:01:47.077Z,972.45
2023-02-17T09:02:47.030Z,972.49
2023-02-17T09:03:46.978Z,972.52
2023-02-17T09:04:47.196Z,972.51
2023-02-17T09:05:47.005Z,972.54
2023-02-17T09:06:47.044Z,972.51
2023-02-17T09:07:47.083Z,972.52
2023-02-17T09:08:47.064Z,972.55
2023-02-17T09:09:46.962Z,972.52
2023-02-17T09:10:46.999Z,972.5
2023-02-17T09:11:47.058Z,972.55
2023-02-17T09:12:47.027Z,972.57
2023-02-17T09:13:47.101Z,972.54
2023-02-17T09:14:47.074Z,972.57
2023-02-17T09:17:47.077Z,972.57
2023-02-17T09:19:47.137Z,972.55
2023-02-17T09:21:47.205Z,972.56
2023-02-17T09:22:47.199Z,972.58
2023-02-17T09:23:47.099Z,972.57
2023-02-17T09:24:47.120Z,972.59
2023-02-17T09:25:47.100Z,972.56
2023-02-17T09:26:47.002Z,972.6
2023-02-17T09:27:47.137Z,972.62
2023-02-17T09:28:47.028Z,972.58
2023-02-17T09:29:47.022Z,972.57
2023-02-17T09:30:47.274Z,972.62
2023-02-17T09:31:47.381Z,972.6
2023-02-17T09:32:47.134Z,972.62
2023-02-17T09:33:47.197Z,972.53
2023-02-17T09:34:47.123Z,972.57
2023-02-17T09:35:47.094Z,972.56
2023-02-17T09:36:47.178Z,972.57
2023-02-17T09:37:47.037Z,972.58
2023-02-17T09:38:47.170Z,972.59
2023-02-17T09:39:47.160Z,972.6
2023-02-17T09:40:47.080Z,972.62
2023-02-17T09:42:47.312Z,972.6
2023-02-17T09:44:47.186Z,972.63
2023-02-17T09:45:47.111Z,972.59
2023-02-17T09:47:00.784Z,972.62
2023-02-17T09:47:47.246Z,972.63
2023-02-17T09:48:47.118Z,972.59
2023-02-17T09:49:47.211Z,972.6
2023-02-17T09:50:47.185Z,972.63
2023-02-17T09:51:47.185Z,972.65
2023-02-17T09:52:47.069Z,972.64
2023-02-17T09:53:47.117Z,972.67
2023-02-17T09:55:47.180Z,972.7
2023-02-17T09:57:47.239Z,972.67
2023-02-17T09:58:47.207Z,972.69
2023-02-17T09:59:47.277Z,972.73
2023-02-17T10:01:47.119Z,972.77
2023-02-17T10:02:47.174Z,972.75
2023-02-17T10:03:47.391Z,972.74
2023-02-17T10:04:47.184Z,972.75
2023-02-17T10:05:47.234Z,972.73
2023-02-17T10:07:47.114Z,972.67
2023-02-17T10:08:47.146Z,972.71
2023-02-17T10:09:47.158Z,972.72
2023-02-17T10:10:47.189Z,972.7
2023-02-17T10:11:47.266Z,972.69
2023-02-17T10:13:47.181Z,972.7
2023-02-17T10:14:47.164Z,972.66
2023-02-17T10:15:47.207Z,972.69
2023-02-17T10:16:47.214Z,972.65
2023-02-17T10:17:47.239Z,972.63
2023-02-17T10:18:48.533Z,972.59
2023-02-17T10:19:47.296Z,972.63
2023-02-17T10:20:47.293Z,972.64
2023-02-17T10:21:47.225Z,972.66
2023-02-17T10:22:47.327Z,972.6
2023-02-17T10:23:47.165Z,972.69
2023-02-17T10:24:48.603Z,972.68
2023-02-17T10:25:47.157Z,972.65
2023-02-17T10:26:47.186Z,972.64
2023-02-17T10:27:47.198Z,972.6
2023-02-17T10:28:47.316Z,972.59
2023-02-17T10:29:47.182Z,972.58
2023-02-17T10:31:47.360Z,972.57
2023-02-17T10:32:47.260Z,972.59
2023-02-17T10:33:47.353Z,972.6
2023-02-17T10:35:47.205Z,972.63
2023-02-17T10:36:47.160Z,972.62
2023-02-17T10:37:47.201Z,972.65
2023-02-17T10:39:47.186Z,972.67
2023-02-17T10:40:47.278Z,972.65
2023-02-17T10:41:47.176Z,972.66
2023-02-17T10:42:47.361Z,972.64
2023-02-17T10:44:47.208Z,972.65
2023-02-17T10:45:47.387Z,972.62
2023-02-17T10:46:47.313Z,972.64
2023-02-17T10:47:47.250Z,972.62
2023-02-17T10:48:47.236Z,972.59
2023-02-17T10:49:47.215Z,972.6
2023-02-17T10:50:47.219Z,972.58
2023-02-17T10:52:47.233Z,972.6
2023-02-17T10:53:47.292Z,972.61
2023-02-17T10:54:47.283Z,972.62
2023-02-17T10:55:47.222Z,972.61
2023-02-17T10:57:47.286Z,972.62
2023-02-17T10:59:47.323Z,972.59
2023-02-17T11:00:47.272Z,972.61
2023-02-17T11:02:47.266Z,972.55
2023-02-17T11:03:47.275Z,972.54
2023-02-17T11:04:47.383Z,972.48
2023-02-17T11:05:47.328Z,972.5
2023-02-17T11:06:47.382Z,972.48
2023-02-17T11:08:47.412Z,972.47
2023-02-17T11:09:47.327Z,972.45
2023-02-17T11:10:47.343Z,972.43
2023-02-17T11:11:47.307Z,972.41
2023-02-17T11:12:47.341Z,972.38
2023-02-17T11:13:47.297Z,972.35
2023-02-17T11:14:47.414Z,972.37
2023-02-17T11:15:47.301Z,972.34
2023-02-17T11:16:47.411Z,972.32
2023-02-17T11:17:47.300Z,972.3
2023-02-17T11:18:47.426Z,972.31
2023-02-17T11:19:47.256Z,972.34
2023-02-17T11:20:47.454Z,972.28
2023-02-17T11:21:47.395Z,972.2
2023-02-17T11:22:47.313Z,972.21
2023-02-17T11:23:47.285Z,972.19
2023-02-17T11:24:47.362Z,972.17
2023-02-17T11:25:47.320Z,972.18
2023-02-17T11:26:47.382Z,972.1
2023-02-17T11:27:47.315Z,972.13
2023-02-17T11:28:47.380Z,972.09
2023-02-17T11:29:47.469Z,972.05
2023-02-17T11:31:47.468Z,972.07
2023-02-17T11:32:47.382Z,972.04
2023-02-17T11:35:47.421Z,972.03
2023-02-17T11:36:47.413Z,972.04
2023-02-17T11:37:47.311Z,972.03
2023-02-17T11:38:47.439Z,971.99
2023-02-17T11:39:47.428Z,971.97
2023-02-17T11:42:47.318Z,971.94
2023-02-17T11:43:47.362Z,971.95
2023-02-17T11:44:47.343Z,971.94
2023-02-17T11:45:47.397Z,971.95
2023-02-17T11:46:47.361Z,971.93
2023-02-17T11:47:47.340Z,971.91
2023-02-17T11:48:47.445Z,971.92
2023-02-17T11:49:47.485Z,971.9
2023-02-17T11:50:47.473Z,971.89
2023-02-17T11:51:47.475Z,971.92
2023-02-17T11:52:47.390Z,971.9
2023-02-17T11:53:47.413Z,971.89
2023-02-17T11:54:47.401Z,971.87
2023-02-17T11:55:47.437Z,971.86
2023-02-17T11:56:47.475Z,971.9
2023-02-17T11:57:47.380Z,971.84
2023-02-17T11:58:47.536Z,971.82
2023-02-17T11:59:47.468Z,971.81
2023-02-17T12:00:47.366Z,971.82
2023-02-17T12:01:47.424Z,971.8
2023-02-17T12:02:47.499Z,971.82
2023-02-17T12:03:47.561Z,971.78
2023-02-17T12:04:47.467Z,971.79
2023-02-17T12:05:47.486Z,971.76
2023-02-17T12:06:47.420Z,971.78
2023-02-17T12:07:47.501Z,971.81
2023-02-17T12:08:47.679Z,971.8
2023-02-17T12:09:47.451Z,971.83
2023-02-17T12:10:47.445Z,971.85
2023-02-17T12:11:47.452Z,971.82
2023-02-17T12:15:47.413Z,971.79
2023-02-17T12:17:47.402Z,971.77
2023-02-17T12:18:47.442Z,971.78
2023-02-17T12:19:47.535Z,971.77
2023-02-17T12:20:47.669Z,971.7
2023-02-17T12:21:47.522Z,971.77
2023-02-17T12:24:47.467Z,971.7
2023-02-17T12:25:47.444Z,971.77
2023-02-17T12:26:47.449Z,971.74
2023-02-17T12:27:47.518Z,971.73
2023-02-17T12:28:47.540Z,971.75
2023-02-17T12:29:47.531Z,971.74
2023-02-17T12:30:47.545Z,971.75
2023-02-17T12:31:47.772Z,971.73
2023-02-17T12:32:47.486Z,971.72
2023-02-17T12:33:47.502Z,971.7
2023-02-17T12:34:47.554Z,971.69
2023-02-17T12:37:48.480Z,971.7
2023-02-17T12:38:47.568Z,971.68
2023-02-17T12:39:47.586Z,971.69
2023-02-17T12:41:47.464Z,971.7
2023-02-17T12:43:49.276Z,971.66
2023-02-17T12:44:47.653Z,971.65
2023-02-17T12:45:47.624Z,971.67
2023-02-17T12:46:47.491Z,971.69
2023-02-17T12:47:47.515Z,971.65
2023-02-17T12:48:47.523Z,971.6
2023-02-17T12:49:47.508Z,971.63
2023-02-17T12:50:47.509Z,971.64
2023-02-17T12:51:47.616Z,971.6
2023-02-17T12:52:47.559Z,971.59
2023-02-17T12:54:47.523Z,971.61
2023-02-17T12:55:47.519Z,971.57
2023-02-17T12:56:47.552Z,971.53
2023-02-17T12:57:47.617Z,971.5
2023-02-17T12:58:47.523Z,971.55
2023-02-17T12:59:47.585Z,971.49
2023-02-17T13:00:47.602Z,971.46
2023-02-17T13:01:47.601Z,971.47
2023-02-17T13:02:47.793Z,971.45
2023-02-17T13:03:47.533Z,971.48
2023-02-17T13:04:47.704Z,971.49
2023-02-17T13:05:47.574Z,971.47
2023-02-17T13:06:47.615Z,971.46
2023-02-17T13:07:47.568Z,971.44
2023-02-17T13:08:47.641Z,971.49
2023-02-17T13:09:47.645Z,971.47
2023-02-17T13:10:47.617Z,971.49
2023-02-17T13:11:47.687Z,971.46
2023-02-17T13:12:47.570Z,971.48
2023-02-17T13:13:47.850Z,971.45
2023-02-17T13:14:47.678Z,971.48
2023-02-17T13:16:47.636Z,971.53
2023-02-17T13:17:47.868Z,971.49
2023-02-17T13:18:49.396Z,971.51
2023-02-17T13:19:49.016Z,971.53
2023-02-17T13:20:47.616Z,971.52
2023-02-17T13:22:47.700Z,971.5
2023-02-17T13:23:47.711Z,971.46
2023-02-17T13:24:47.780Z,971.47
2023-02-17T13:25:47.606Z,971.48
2023-02-17T13:26:47.696Z,971.49
2023-02-17T13:27:49.116Z,971.46
2023-02-17T13:29:47.694Z,971.45
2023-02-17T13:30:47.717Z,971.43
2023-02-17T13:31:47.690Z,971.45
2023-02-17T13:32:47.740Z,971.42
2023-02-17T13:33:47.571Z,971.39
2023-02-17T13:34:47.619Z,971.36
2023-02-17T13:35:47.614Z,971.42
2023-02-17T13:36:47.723Z,971.37
2023-02-17T13:38:47.707Z,971.36
2023-02-17T13:39:47.788Z,971.39
2023-02-17T13:40:47.740Z,971.41
2023-02-17T13:41:47.677Z,971.4
2023-02-17T13:42:47.660Z,971.37
2023-02-17T13:43:47.869Z,971.38
2023-02-17T13:44:47.724Z,971.37
2023-02-17T13:45:47.800Z,971.35
2023-02-17T13:46:47.613Z,971.37
2023-02-17T13:47:47.718Z,971.38
2023-02-17T13:48:47.688Z,971.4
2023-02-17T13:49:47.740Z,971.34
2023-02-17T13:50:47.637Z,971.39
2023-02-17T13:51:47.686Z,971.37
2023-02-17T13:52:47.701Z,971.32
2023-02-17T13:53:47.740Z,971.3
2023-02-17T13:54:47.825Z,971.31
2023-02-17T13:55:47.749Z,971.34
2023-02-17T13:56:47.796Z,971.28
2023-02-17T13:57:47.685Z,971.29
2023-02-17T13:58:47.767Z,971.3
2023-02-17T13:59:47.728Z,971.33
2023-02-17T14:00:47.749Z,971.29
2023-02-17T14:01:47.743Z,971.27
2023-02-17T14:02:47.674Z,971.32
2023-02-17T14:03:47.816Z,971.3
2023-02-17T14:04:47.812Z,971.26
2023-02-17T14:05:47.722Z,971.3
2023-02-17T14:06:47.863Z,971.31
2023-02-17T14:07:47.632Z,971.32
2023-02-17T14:08:48.745Z,971.33
2023-02-17T14:09:47.712Z,971.32
2023-02-17T14:10:47.778Z,971.3
2023-02-17T14:11:47.692Z,971.32
2023-02-17T14:12:47.796Z,971.31
2023-02-17T14:13:47.833Z,971.28
2023-02-17T14:14:47.711Z,971.27
2023-02-17T14:15:47.738Z,971.31
2023-02-17T14:17:47.775Z,971.3
2023-02-17T14:18:47.773Z,971.32
2023-02-17T14:19:47.850Z,971.31
2023-02-17T14:20:47.860Z,971.28
2023-02-17T14:22:55.963Z,971.29
2023-02-17T14:23:47.828Z,971.3
2023-02-17T14:24:47.765Z,971.33
2023-02-17T14:25:47.789Z,971.25
2023-02-17T14:26:47.940Z,971.23
2023-02-17T14:27:47.854Z,971.24
2023-02-17T14:28:47.883Z,971.18
2023-02-17T14:29:47.717Z,971.24
2023-02-17T14:32:47.915Z,971.26
2023-02-17T14:33:47.708Z,971.24
2023-02-17T14:34:47.760Z,971.29
2023-02-17T14:36:47.750Z,971.32
2023-02-17T14:37:47.816Z,971.35
2023-02-17T14:38:47.778Z,971.36
2023-02-17T14:39:47.887Z,971.34
2023-02-17T14:40:47.732Z,971.31
2023-02-17T14:41:47.738Z,971.33
2023-02-17T14:42:47.846Z,971.34
2023-02-17T14:44:47.872Z,971.38
2023-02-17T14:45:47.894Z,971.35
2023-02-17T14:46:47.890Z,971.4
2023-02-17T14:47:47.879Z,971.37
2023-02-17T14:48:47.733Z,971.36
2023-02-17T14:49:47.793Z,971.37
2023-02-17T14:50:47.882Z,971.32
2023-02-17T14:53:48.025Z,971.26
2023-02-17T14:54:47.770Z,971.22
2023-02-17T14:55:47.873Z,971.23
2023-02-17T14:57:47.919Z,971.24
2023-02-17T15:00:47.871Z,971.28